sensor_id;sensor_type;location;lat;lon;timestamp;temperature;humidity
78731;SHT31;68055;51.978;5.658;2023-04-24T00:01:27;13.0;71.3
78731;SHT31;68055;51.978;5.658;2023-04-24T00:04:00;13.1;70.6
78731;SHT31;68055;51.978;5.658;2023-04-24T00:06:31;13.1;70.4
78731;SHT31;68055;51.978;5.658;2023-04-24T00:09:02;13.1;70.4
78731;SHT31;68055;51.978;5.658;2023-04-24T00:11:32;13.1;70.8
78731;SHT31;68055;51.978;5.658;2023-04-24T00:14:02;13.1;70.5
78731;SHT31;68055;51.978;5.658;2023-04-24T00:16:34;13.1;70.7
78731;SHT31;68055;51.978;5.658;2023-04-24T00:19:03;13.1;70.7
78731;SHT31;68055;51.978;5.658;2023-04-24T00:21:35;13.1;70.3
78731;SHT31;68055;51.978;5.658;2023-04-24T00:24:05;13.1;70.2
78731;SHT31;68055;51.978;5.658;2023-04-24T00:26:36;13.1;70.2
78731;SHT31;68055;51.978;5.658;2023-04-24T00:29:07;13.1;70.2
78731;SHT31;68055;51.978;5.658;2023-04-24T00:31:37;13.1;70.1
78731;SHT31;68055;51.978;5.658;2023-04-24T00:34:07;13.1;70.0
78731;SHT31;68055;51.978;5.658;2023-04-24T00:36:38;13.1;69.9
78731;SHT31;68055;51.978;5.658;2023-04-24T00:39:07;13.1;70.0
78731;SHT31;68055;51.978;5.658;2023-04-24T00:41:38;13.1;69.7
78731;SHT31;68055;51.978;5.658;2023-04-24T00:44:09;13.1;69.7
78731;SHT31;68055;51.978;5.658;2023-04-24T00:46:38;13.1;70.1
78731;SHT31;68055;51.978;5.658;2023-04-24T00:49:10;13.1;70.1
78731;SHT31;68055;51.978;5.658;2023-04-24T00:51:40;13.1;70.2
78731;SHT31;68055;51.978;5.658;2023-04-24T00:54:13;13.1;70.6
78731;SHT31;68055;51.978;5.658;2023-04-24T00:56:44;13.1;70.6
78731;SHT31;68055;51.978;5.658;2023-04-24T00:59:16;13.0;70.7
78731;SHT31;68055;51.978;5.658;2023-04-24T01:01:46;13.0;71.3
78731;SHT31;68055;51.978;5.658;2023-04-24T01:04:17;13.0;70.7
78731;SHT31;68055;51.978;5.658;2023-04-24T01:06:48;13.0;69.7
78731;SHT31;68055;51.978;5.658;2023-04-24T01:09:21;12.9;69.3
78731;SHT31;68055;51.978;5.658;2023-04-24T01:11:52;12.8;69.8
78731;SHT31;68055;51.978;5.658;2023-04-24T01:14:22;12.7;70.1
78731;SHT31;68055;51.978;5.658;2023-04-24T01:16:52;12.7;70.9
78731;SHT31;68055;51.978;5.658;2023-04-24T01:19:24;12.6;71.1
78731;SHT31;68055;51.978;5.658;2023-04-24T01:21:54;12.6;71.5
78731;SHT31;68055;51.978;5.658;2023-04-24T01:24:28;12.6;71.7
78731;SHT31;68055;51.978;5.658;2023-04-24T01:26:58;12.6;71.6
78731;SHT31;68055;51.978;5.658;2023-04-24T01:29:28;12.6;72.1
78731;SHT31;68055;51.978;5.658;2023-04-24T01:31:58;12.6;71.7
78731;SHT31;68055;51.978;5.658;2023-04-24T01:34:28;12.6;72.1
78731;SHT31;68055;51.978;5.658;2023-04-24T01:36:58;12.6;72.1
78731;SHT31;68055;51.978;5.658;2023-04-24T01:39:28;12.6;72.3
78731;SHT31;68055;51.978;5.658;2023-04-24T01:41:57;12.6;71.9
78731;SHT31;68055;51.978;5.658;2023-04-24T01:44:27;12.6;72.1
78731;SHT31;68055;51.978;5.658;2023-04-24T01:46:57;12.6;72.2
78731;SHT31;68055;51.978;5.658;2023-04-24T01:49:27;12.7;72.2
78731;SHT31;68055;51.978;5.658;2023-04-24T01:51:56;12.7;72.6
78731;SHT31;68055;51.978;5.658;2023-04-24T01:54:26;12.7;72.7
78731;SHT31;68055;51.978;5.658;2023-04-24T01:56:58;12.7;72.6
78731;SHT31;68055;51.978;5.658;2023-04-24T01:59:28;12.6;73.0
78731;SHT31;68055;51.978;5.658;2023-04-24T02:02:00;12.6;73.1
78731;SHT31;68055;51.978;5.658;2023-04-24T02:04:31;12.6;73.2
78731;SHT31;68055;51.978;5.658;2023-04-24T02:07:01;12.7;73.6
78731;SHT31;68055;51.978;5.658;2023-04-24T02:09:30;12.7;73.7
78731;SHT31;68055;51.978;5.658;2023-04-24T02:12:00;12.7;73.5
78731;SHT31;68055;51.978;5.658;2023-04-24T02:14:29;12.8;72.9
78731;SHT31;68055;51.978;5.658;2023-04-24T02:16:59;12.8;73.0
78731;SHT31;68055;51.978;5.658;2023-04-24T02:19:29;12.8;72.6
78731;SHT31;68055;51.978;5.658;2023-04-24T02:21:58;12.8;73.0
78731;SHT31;68055;51.978;5.658;2023-04-24T02:24:30;12.8;73.0
78731;SHT31;68055;51.978;5.658;2023-04-24T02:26:59;12.9;73.0
78731;SHT31;68055;51.978;5.658;2023-04-24T02:29:30;12.9;72.9
78731;SHT31;68055;51.978;5.658;2023-04-24T02:32:02;12.9;73.0
78731;SHT31;68055;51.978;5.658;2023-04-24T02:34:33;12.9;73.0
78731;SHT31;68055;51.978;5.658;2023-04-24T02:37:02;12.9;73.2
78731;SHT31;68055;51.978;5.658;2023-04-24T02:39:32;12.8;72.9
78731;SHT31;68055;51.978;5.658;2023-04-24T02:42:04;12.8;72.8
78731;SHT31;68055;51.978;5.658;2023-04-24T02:44:35;12.8;72.4
78731;SHT31;68055;51.978;5.658;2023-04-24T02:47:06;12.7;73.0
78731;SHT31;68055;51.978;5.658;2023-04-24T02:49:36;12.7;73.1
78731;SHT31;68055;51.978;5.658;2023-04-24T02:52:06;12.7;73.4
78731;SHT31;68055;51.978;5.658;2023-04-24T02:54:35;12.6;73.4
78731;SHT31;68055;51.978;5.658;2023-04-24T02:57:05;12.6;73.2
78731;SHT31;68055;51.978;5.658;2023-04-24T02:59:35;12.6;73.1
78731;SHT31;68055;51.978;5.658;2023-04-24T03:02:04;12.6;73.1
78731;SHT31;68055;51.978;5.658;2023-04-24T03:04:34;12.5;73.3
78731;SHT31;68055;51.978;5.658;2023-04-24T03:07:03;12.5;73.3
78731;SHT31;68055;51.978;5.658;2023-04-24T03:09:33;12.5;73.8
78731;SHT31;68055;51.978;5.658;2023-04-24T03:12:02;12.5;73.6
78731;SHT31;68055;51.978;5.658;2023-04-24T03:14:32;12.5;73.9
78731;SHT31;68055;51.978;5.658;2023-04-24T03:17:02;12.5;73.8
78731;SHT31;68055;51.978;5.658;2023-04-24T03:19:31;12.5;73.9
78731;SHT31;68055;51.978;5.658;2023-04-24T03:22:02;12.5;73.8
78731;SHT31;68055;51.978;5.658;2023-04-24T03:24:32;12.5;74.4
78731;SHT31;68055;51.978;5.658;2023-04-24T03:27:02;12.5;74.4
78731;SHT31;68055;51.978;5.658;2023-04-24T03:29:32;12.5;74.2
78731;SHT31;68055;51.978;5.658;2023-04-24T03:32:01;12.5;74.1
78731;SHT31;68055;51.978;5.658;2023-04-24T03:34:31;12.5;73.4
78731;SHT31;68055;51.978;5.658;2023-04-24T03:37:00;12.4;74.0
78731;SHT31;68055;51.978;5.658;2023-04-24T03:39:32;12.4;74.2
78731;SHT31;68055;51.978;5.658;2023-04-24T03:42:01;12.4;74.2
78731;SHT31;68055;51.978;5.658;2023-04-24T03:44:31;12.4;74.8
78731;SHT31;68055;51.978;5.658;2023-04-24T03:47:00;12.4;74.7
78731;SHT31;68055;51.978;5.658;2023-04-24T03:49:32;12.4;74.9
78731;SHT31;68055;51.978;5.658;2023-04-24T03:52:01;12.4;74.3
78731;SHT31;68055;51.978;5.658;2023-04-24T03:54:31;12.4;74.7
78731;SHT31;68055;51.978;5.658;2023-04-24T03:57:00;12.4;74.7
78731;SHT31;68055;51.978;5.658;2023-04-24T03:59:32;12.4;74.5
78731;SHT31;68055;51.978;5.658;2023-04-24T04:02:01;12.4;74.3
78731;SHT31;68055;51.978;5.658;2023-04-24T04:04:31;12.4;74.2
78731;SHT31;68055;51.978;5.658;2023-04-24T04:07:00;12.4;74.0
78731;SHT31;68055;51.978;5.658;2023-04-24T04:09:32;12.4;73.5
78731;SHT31;68055;51.978;5.658;2023-04-24T04:12:02;12.4;73.3
78731;SHT31;68055;51.978;5.658;2023-04-24T04:14:32;12.4;73.0
78731;SHT31;68055;51.978;5.658;2023-04-24T04:17:01;12.4;73.2
78731;SHT31;68055;51.978;5.658;2023-04-24T04:19:31;12.4;73.1
78731;SHT31;68055;51.978;5.658;2023-04-24T04:22:00;12.3;73.1
78731;SHT31;68055;51.978;5.658;2023-04-24T04:24:30;12.3;73.4
78731;SHT31;68055;51.978;5.658;2023-04-24T04:27:00;12.3;73.2
78731;SHT31;68055;51.978;5.658;2023-04-24T04:29:29;12.2;73.3
78731;SHT31;68055;51.978;5.658;2023-04-24T04:31:58;12.2;73.7
78731;SHT31;68055;51.978;5.658;2023-04-24T04:34:28;12.2;73.8
78731;SHT31;68055;51.978;5.658;2023-04-24T04:36:59;12.2;73.3
78731;SHT31;68055;51.978;5.658;2023-04-24T04:39:29;12.2;74.0
78731;SHT31;68055;51.978;5.658;2023-04-24T04:41:59;12.1;74.2
78731;SHT31;68055;51.978;5.658;2023-04-24T04:44:28;12.1;74.2
78731;SHT31;68055;51.978;5.658;2023-04-24T04:46:58;12.1;74.3
78731;SHT31;68055;51.978;5.658;2023-04-24T04:49:31;12.1;74.4
78731;SHT31;68055;51.978;5.658;2023-04-24T04:52:01;12.1;74.6
78731;SHT31;68055;51.978;5.658;2023-04-24T04:54:31;12.1;74.5
78731;SHT31;68055;51.978;5.658;2023-04-24T04:57:00;12.0;74.9
78731;SHT31;68055;51.978;5.658;2023-04-24T04:59:31;12.0;74.3
78731;SHT31;68055;51.978;5.658;2023-04-24T05:02:00;12.0;74.1
78731;SHT31;68055;51.978;5.658;2023-04-24T05:04:30;12.0;74.9
78731;SHT31;68055;51.978;5.658;2023-04-24T05:07:00;12.0;74.6
78731;SHT31;68055;51.978;5.658;2023-04-24T05:09:30;12.0;74.8
78731;SHT31;68055;51.978;5.658;2023-04-24T05:11:59;12.0;74.5
78731;SHT31;68055;51.978;5.658;2023-04-24T05:14:29;12.0;74.4
78731;SHT31;68055;51.978;5.658;2023-04-24T05:16:59;12.1;75.3
78731;SHT31;68055;51.978;5.658;2023-04-24T05:19:29;12.1;74.7
78731;SHT31;68055;51.978;5.658;2023-04-24T05:22:00;12.1;74.2
78731;SHT31;68055;51.978;5.658;2023-04-24T05:24:30;12.1;74.8
78731;SHT31;68055;51.978;5.658;2023-04-24T05:27:00;12.1;74.5
78731;SHT31;68055;51.978;5.658;2023-04-24T05:29:30;12.2;74.4
78731;SHT31;68055;51.978;5.658;2023-04-24T05:32:00;12.2;74.7
78731;SHT31;68055;51.978;5.658;2023-04-24T05:34:30;12.2;74.2
78731;SHT31;68055;51.978;5.658;2023-04-24T05:37:00;12.3;74.3
78731;SHT31;68055;51.978;5.658;2023-04-24T05:39:30;12.3;74.5
78731;SHT31;68055;51.978;5.658;2023-04-24T05:42:01;12.3;74.5
78731;SHT31;68055;51.978;5.658;2023-04-24T05:44:32;12.4;75.3
78731;SHT31;68055;51.978;5.658;2023-04-24T05:47:01;12.4;75.4
78731;SHT31;68055;51.978;5.658;2023-04-24T05:49:33;12.5;75.1
78731;SHT31;68055;51.978;5.658;2023-04-24T05:52:03;12.5;74.2
78731;SHT31;68055;51.978;5.658;2023-04-24T05:54:36;12.5;73.7
78731;SHT31;68055;51.978;5.658;2023-04-24T05:57:05;12.6;73.9
78731;SHT31;68055;51.978;5.658;2023-04-24T05:59:37;12.6;73.7
78731;SHT31;68055;51.978;5.658;2023-04-24T06:02:07;12.6;74.3
78731;SHT31;68055;51.978;5.658;2023-04-24T06:04:37;12.6;74.2
78731;SHT31;68055;51.978;5.658;2023-04-24T06:07:07;12.7;74.2
78731;SHT31;68055;51.978;5.658;2023-04-24T06:09:37;12.7;74.0
78731;SHT31;68055;51.978;5.658;2023-04-24T06:12:06;12.7;74.2
78731;SHT31;68055;51.978;5.658;2023-04-24T06:14:36;12.7;74.3
78731;SHT31;68055;51.978;5.658;2023-04-24T06:17:06;12.7;74.3
78731;SHT31;68055;51.978;5.658;2023-04-24T06:19:35;12.8;74.0
78731;SHT31;68055;51.978;5.658;2023-04-24T06:22:05;12.8;73.9
78731;SHT31;68055;51.978;5.658;2023-04-24T06:24:35;12.8;74.0
78731;SHT31;68055;51.978;5.658;2023-04-24T06:27:05;12.8;73.4
78731;SHT31;68055;51.978;5.658;2023-04-24T06:29:36;12.8;73.3
78731;SHT31;68055;51.978;5.658;2023-04-24T06:32:06;12.8;73.8
78731;SHT31;68055;51.978;5.658;2023-04-24T06:34:36;12.8;73.5
78731;SHT31;68055;51.978;5.658;2023-04-24T06:37:06;12.8;73.5
78731;SHT31;68055;51.978;5.658;2023-04-24T06:39:35;12.8;73.4
78731;SHT31;68055;51.978;5.658;2023-04-24T06:42:07;12.8;73.1
78731;SHT31;68055;51.978;5.658;2023-04-24T06:44:37;12.8;73.3
78731;SHT31;68055;51.978;5.658;2023-04-24T06:47:08;12.8;73.3
78731;SHT31;68055;51.978;5.658;2023-04-24T06:49:41;12.8;72.8
78731;SHT31;68055;51.978;5.658;2023-04-24T06:52:11;12.7;73.4
78731;SHT31;68055;51.978;5.658;2023-04-24T06:54:41;12.7;72.8
78731;SHT31;68055;51.978;5.658;2023-04-24T06:57:11;12.7;72.7
78731;SHT31;68055;51.978;5.658;2023-04-24T06:59:40;12.7;72.3
78731;SHT31;68055;51.978;5.658;2023-04-24T07:02:10;12.6;72.8
78731;SHT31;68055;51.978;5.658;2023-04-24T07:04:40;12.6;72.9
78731;SHT31;68055;51.978;5.658;2023-04-24T07:07:09;12.6;72.7
78731;SHT31;68055;51.978;5.658;2023-04-24T07:09:41;12.5;72.9
78731;SHT31;68055;51.978;5.658;2023-04-24T07:12:12;12.5;73.5
78731;SHT31;68055;51.978;5.658;2023-04-24T07:14:44;12.5;72.6
78731;SHT31;68055;51.978;5.658;2023-04-24T07:17:13;12.4;72.5
78731;SHT31;68055;51.978;5.658;2023-04-24T07:19:43;12.4;72.8
78731;SHT31;68055;51.978;5.658;2023-04-24T07:22:13;12.4;72.6
78731;SHT31;68055;51.978;5.658;2023-04-24T07:24:44;12.3;73.2
78731;SHT31;68055;51.978;5.658;2023-04-24T07:27:14;12.3;72.6
78731;SHT31;68055;51.978;5.658;2023-04-24T07:29:43;12.3;72.8
78731;SHT31;68055;51.978;5.658;2023-04-24T07:32:13;12.2;73.3
78731;SHT31;68055;51.978;5.658;2023-04-24T07:34:42;12.2;73.4
78731;SHT31;68055;51.978;5.658;2023-04-24T07:37:12;12.1;72.4
78731;SHT31;68055;51.978;5.658;2023-04-24T07:39:42;12.1;73.2
78731;SHT31;68055;51.978;5.658;2023-04-24T07:42:12;12.0;72.9
78731;SHT31;68055;51.978;5.658;2023-04-24T07:44:42;12.0;72.5
78731;SHT31;68055;51.978;5.658;2023-04-24T07:47:13;12.0;73.2
78731;SHT31;68055;51.978;5.658;2023-04-24T07:49:43;11.9;72.8
78731;SHT31;68055;51.978;5.658;2023-04-24T07:52:13;11.9;73.3
78731;SHT31;68055;51.978;5.658;2023-04-24T07:54:44;11.9;72.9
78731;SHT31;68055;51.978;5.658;2023-04-24T07:57:14;11.8;73.4
78731;SHT31;68055;51.978;5.658;2023-04-24T07:59:44;11.8;74.1
78731;SHT31;68055;51.978;5.658;2023-04-24T08:02:13;11.8;74.0
78731;SHT31;68055;51.978;5.658;2023-04-24T08:04:43;11.8;73.8
78731;SHT31;68055;51.978;5.658;2023-04-24T08:07:13;11.8;73.7
78731;SHT31;68055;51.978;5.658;2023-04-24T08:09:43;11.8;73.4
78731;SHT31;68055;51.978;5.658;2023-04-24T08:12:12;11.8;73.9
78731;SHT31;68055;51.978;5.658;2023-04-24T08:14:42;11.8;74.3
78731;SHT31;68055;51.978;5.658;2023-04-24T08:17:12;11.8;73.9
78731;SHT31;68055;51.978;5.658;2023-04-24T08:19:42;11.7;74.4
78731;SHT31;68055;51.978;5.658;2023-04-24T08:22:15;11.7;74.2
78731;SHT31;68055;51.978;5.658;2023-04-24T08:24:47;11.7;74.5
78731;SHT31;68055;51.978;5.658;2023-04-24T08:27:18;11.7;73.9
78731;SHT31;68055;51.978;5.658;2023-04-24T08:29:48;11.7;74.5
78731;SHT31;68055;51.978;5.658;2023-04-24T08:32:17;11.7;74.3
78731;SHT31;68055;51.978;5.658;2023-04-24T08:34:47;11.7;74.7
78731;SHT31;68055;51.978;5.658;2023-04-24T08:37:17;11.7;74.6
78731;SHT31;68055;51.978;5.658;2023-04-24T08:39:46;11.7;74.8
78731;SHT31;68055;51.978;5.658;2023-04-24T08:42:17;11.7;74.6
78731;SHT31;68055;51.978;5.658;2023-04-24T08:44:48;11.7;74.7
78731;SHT31;68055;51.978;5.658;2023-04-24T08:47:20;11.7;74.4
78731;SHT31;68055;51.978;5.658;2023-04-24T08:49:51;11.7;73.9
78731;SHT31;68055;51.978;5.658;2023-04-24T08:52:21;11.7;74.4
78731;SHT31;68055;51.978;5.658;2023-04-24T08:54:53;11.7;74.1
78731;SHT31;68055;51.978;5.658;2023-04-24T08:57:25;11.8;74.0
78731;SHT31;68055;51.978;5.658;2023-04-24T08:59:57;11.8;74.3
78731;SHT31;68055;51.978;5.658;2023-04-24T09:02:27;11.8;74.4
78731;SHT31;68055;51.978;5.658;2023-04-24T09:05:02;11.8;74.0
78731;SHT31;68055;51.978;5.658;2023-04-24T09:07:35;11.8;73.8
78731;SHT31;68055;51.978;5.658;2023-04-24T09:10:07;11.8;73.7
78731;SHT31;68055;51.978;5.658;2023-04-24T09:12:37;11.9;73.3
78731;SHT31;68055;51.978;5.658;2023-04-24T09:15:08;11.9;71.8
78731;SHT31;68055;51.978;5.658;2023-04-24T09:17:38;11.9;71.6
78731;SHT31;68055;51.978;5.658;2023-04-24T09:20:09;11.9;71.7
78731;SHT31;68055;51.978;5.658;2023-04-24T09:22:41;12.0;72.2
78731;SHT31;68055;51.978;5.658;2023-04-24T09:25:11;12.1;72.5
78731;SHT31;68055;51.978;5.658;2023-04-24T09:27:45;12.2;70.7
78731;SHT31;68055;51.978;5.658;2023-04-24T09:30:22;12.3;69.5
78731;SHT31;68055;51.978;5.658;2023-04-24T09:33:12;12.4;69.0
78731;SHT31;68055;51.978;5.658;2023-04-24T09:35:50;12.5;69.8
78731;SHT31;68055;51.978;5.658;2023-04-24T09:38:36;12.6;68.6
78731;SHT31;68055;51.978;5.658;2023-04-24T09:41:08;12.7;68.2
78731;SHT31;68055;51.978;5.658;2023-04-24T09:43:42;12.8;67.1
78731;SHT31;68055;51.978;5.658;2023-04-24T09:46:12;12.9;68.0
78731;SHT31;68055;51.978;5.658;2023-04-24T09:48:42;13.0;67.7
78731;SHT31;68055;51.978;5.658;2023-04-24T09:51:12;13.1;67.7
78731;SHT31;68055;51.978;5.658;2023-04-24T09:53:49;13.2;66.8
78731;SHT31;68055;51.978;5.658;2023-04-24T09:56:22;13.3;65.8
78731;SHT31;68055;51.978;5.658;2023-04-24T09:59:06;13.4;65.5
78731;SHT31;68055;51.978;5.658;2023-04-24T10:01:37;13.5;66.3
78731;SHT31;68055;51.978;5.658;2023-04-24T10:04:17;13.6;64.9
78731;SHT31;68055;51.978;5.658;2023-04-24T10:06:49;13.6;63.9
78731;SHT31;68055;51.978;5.658;2023-04-24T10:09:20;13.6;64.5
78731;SHT31;68055;51.978;5.658;2023-04-24T10:11:51;13.6;64.1
78731;SHT31;68055;51.978;5.658;2023-04-24T10:14:22;13.7;63.7
78731;SHT31;68055;51.978;5.658;2023-04-24T10:16:54;13.7;63.8
78731;SHT31;68055;51.978;5.658;2023-04-24T10:19:26;13.7;65.3
78731;SHT31;68055;51.978;5.658;2023-04-24T10:21:56;13.7;64.6
78731;SHT31;68055;51.978;5.658;2023-04-24T10:24:28;13.7;63.1
78731;SHT31;68055;51.978;5.658;2023-04-24T10:27:00;13.8;61.1
78731;SHT31;68055;51.978;5.658;2023-04-24T10:29:31;13.8;60.1
78731;SHT31;68055;51.978;5.658;2023-04-24T10:32:01;13.8;62.2
78731;SHT31;68055;51.978;5.658;2023-04-24T10:34:31;13.9;62.3
78731;SHT31;68055;51.978;5.658;2023-04-24T10:37:02;14.0;62.4
78731;SHT31;68055;51.978;5.658;2023-04-24T10:39:33;14.1;60.4
78731;SHT31;68055;51.978;5.658;2023-04-24T10:42:13;14.2;58.2
78731;SHT31;68055;51.978;5.658;2023-04-24T10:44:47;14.2;59.7
78731;SHT31;68055;51.978;5.658;2023-04-24T10:47:17;14.2;59.3
78731;SHT31;68055;51.978;5.658;2023-04-24T10:49:52;14.3;57.5
78731;SHT31;68055;51.978;5.658;2023-04-24T10:52:22;14.3;57.1
78731;SHT31;68055;51.978;5.658;2023-04-24T10:54:52;14.2;56.5
78731;SHT31;68055;51.978;5.658;2023-04-24T10:57:29;14.1;58.1
78731;SHT31;68055;51.978;5.658;2023-04-24T11:00:15;14.1;58.3
78731;SHT31;68055;51.978;5.658;2023-04-24T11:02:46;14.0;59.6
78731;SHT31;68055;51.978;5.658;2023-04-24T11:05:21;14.0;59.8
78731;SHT31;68055;51.978;5.658;2023-04-24T11:08:13;14.0;58.4
78731;SHT31;68055;51.978;5.658;2023-04-24T11:10:54;14.0;59.2
78731;SHT31;68055;51.978;5.658;2023-04-24T11:13:24;14.0;59.2
78731;SHT31;68055;51.978;5.658;2023-04-24T11:16:25;14.0;59.1
78731;SHT31;68055;51.978;5.658;2023-04-24T11:19:03;14.1;59.8
78731;SHT31;68055;51.978;5.658;2023-04-24T11:21:40;14.1;59.2
78731;SHT31;68055;51.978;5.658;2023-04-24T11:24:27;14.1;59.0
78731;SHT31;68055;51.978;5.658;2023-04-24T11:27:00;14.2;59.5
78731;SHT31;68055;51.978;5.658;2023-04-24T11:29:44;14.2;59.9
78731;SHT31;68055;51.978;5.658;2023-04-24T11:32:19;14.3;60.2
78731;SHT31;68055;51.978;5.658;2023-04-24T11:34:54;14.4;59.1
78731;SHT31;68055;51.978;5.658;2023-04-24T11:37:26;14.4;58.2
78731;SHT31;68055;51.978;5.658;2023-04-24T11:39:57;14.5;58.5
78731;SHT31;68055;51.978;5.658;2023-04-24T11:42:28;14.5;58.7
78731;SHT31;68055;51.978;5.658;2023-04-24T11:44:57;14.6;57.4
78731;SHT31;68055;51.978;5.658;2023-04-24T11:47:30;14.6;57.8
78731;SHT31;68055;51.978;5.658;2023-04-24T11:50:01;14.6;57.0
78731;SHT31;68055;51.978;5.658;2023-04-24T11:52:32;14.6;57.0
78731;SHT31;68055;51.978;5.658;2023-04-24T11:55:06;14.6;57.7
78731;SHT31;68055;51.978;5.658;2023-04-24T11:57:35;14.5;60.0
78731;SHT31;68055;51.978;5.658;2023-04-24T12:00:06;14.5;58.3
78731;SHT31;68055;51.978;5.658;2023-04-24T12:02:37;14.4;58.5
78731;SHT31;68055;51.978;5.658;2023-04-24T12:05:08;14.4;59.3
78731;SHT31;68055;51.978;5.658;2023-04-24T12:07:42;14.3;59.8
78731;SHT31;68055;51.978;5.658;2023-04-24T12:10:12;14.2;60.9
78731;SHT31;68055;51.978;5.658;2023-04-24T12:12:42;14.2;61.0
78731;SHT31;68055;51.978;5.658;2023-04-24T12:15:18;14.2;61.6
78731;SHT31;68055;51.978;5.658;2023-04-24T12:17:51;14.1;61.0
78731;SHT31;68055;51.978;5.658;2023-04-24T12:20:26;14.2;59.6
78731;SHT31;68055;51.978;5.658;2023-04-24T12:22:58;14.2;59.3
78731;SHT31;68055;51.978;5.658;2023-04-24T12:25:31;14.3;59.8
78731;SHT31;68055;51.978;5.658;2023-04-24T12:28:11;14.3;59.7
78731;SHT31;68055;51.978;5.658;2023-04-24T12:30:43;14.4;58.3
78731;SHT31;68055;51.978;5.658;2023-04-24T12:33:19;14.4;57.9
78731;SHT31;68055;51.978;5.658;2023-04-24T12:35:51;14.4;58.0
78731;SHT31;68055;51.978;5.658;2023-04-24T12:38:25;14.4;56.5
78731;SHT31;68055;51.978;5.658;2023-04-24T12:41:07;14.5;56.2
78731;SHT31;68055;51.978;5.658;2023-04-24T12:43:37;14.5;55.7
78731;SHT31;68055;51.978;5.658;2023-04-24T12:46:09;14.5;56.5
78731;SHT31;68055;51.978;5.658;2023-04-24T12:48:39;14.5;57.0
78731;SHT31;68055;51.978;5.658;2023-04-24T12:51:08;14.5;57.0
78731;SHT31;68055;51.978;5.658;2023-04-24T12:53:38;14.5;56.8
78731;SHT31;68055;51.978;5.658;2023-04-24T12:56:08;14.5;55.8
78731;SHT31;68055;51.978;5.658;2023-04-24T12:58:39;14.5;55.2
78731;SHT31;68055;51.978;5.658;2023-04-24T13:01:09;14.5;54.7
78731;SHT31;68055;51.978;5.658;2023-04-24T13:03:38;14.5;55.2
78731;SHT31;68055;51.978;5.658;2023-04-24T13:06:08;14.5;55.4
78731;SHT31;68055;51.978;5.658;2023-04-24T13:08:38;14.5;55.8
78731;SHT31;68055;51.978;5.658;2023-04-24T13:11:07;14.6;55.3
78731;SHT31;68055;51.978;5.658;2023-04-24T13:13:37;14.6;54.1
78731;SHT31;68055;51.978;5.658;2023-04-24T13:16:06;14.6;53.6
78731;SHT31;68055;51.978;5.658;2023-04-24T13:18:36;14.6;53.3
78731;SHT31;68055;51.978;5.658;2023-04-24T13:21:06;14.6;52.8
78731;SHT31;68055;51.978;5.658;2023-04-24T13:23:36;14.6;53.7
78731;SHT31;68055;51.978;5.658;2023-04-24T13:26:05;14.6;54.3
78731;SHT31;68055;51.978;5.658;2023-04-24T13:28:35;14.6;53.7
78731;SHT31;68055;51.978;5.658;2023-04-24T13:31:07;14.6;53.0
78731;SHT31;68055;51.978;5.658;2023-04-24T13:33:37;14.6;53.8
78731;SHT31;68055;51.978;5.658;2023-04-24T13:36:07;14.6;54.0
78731;SHT31;68055;51.978;5.658;2023-04-24T13:38:37;14.6;53.6
78731;SHT31;68055;51.978;5.658;2023-04-24T13:41:07;14.6;53.7
78731;SHT31;68055;51.978;5.658;2023-04-24T13:43:37;14.7;52.9
78731;SHT31;68055;51.978;5.658;2023-04-24T13:46:09;14.7;53.3
78731;SHT31;68055;51.978;5.658;2023-04-24T13:48:38;14.8;50.7
78731;SHT31;68055;51.978;5.658;2023-04-24T13:51:08;14.8;51.2
78731;SHT31;68055;51.978;5.658;2023-04-24T13:53:38;14.8;50.9
78731;SHT31;68055;51.978;5.658;2023-04-24T13:56:07;14.9;50.4
78731;SHT31;68055;51.978;5.658;2023-04-24T13:58:37;14.9;49.4
78731;SHT31;68055;51.978;5.658;2023-04-24T14:01:07;14.9;49.3
78731;SHT31;68055;51.978;5.658;2023-04-24T14:03:40;14.9;49.8
78731;SHT31;68055;51.978;5.658;2023-04-24T14:06:10;15.0;49.3
78731;SHT31;68055;51.978;5.658;2023-04-24T14:08:40;15.0;50.7
78731;SHT31;68055;51.978;5.658;2023-04-24T14:11:09;15.0;50.6
78731;SHT31;68055;51.978;5.658;2023-04-24T14:13:41;15.0;48.5
78731;SHT31;68055;51.978;5.658;2023-04-24T14:16:11;15.0;47.3
78731;SHT31;68055;51.978;5.658;2023-04-24T14:18:41;15.0;47.7
78731;SHT31;68055;51.978;5.658;2023-04-24T14:21:12;14.9;48.2
78731;SHT31;68055;51.978;5.658;2023-04-24T14:23:43;14.9;48.8
78731;SHT31;68055;51.978;5.658;2023-04-24T14:26:13;14.9;48.0
78731;SHT31;68055;51.978;5.658;2023-04-24T14:28:43;15.0;47.2
78731;SHT31;68055;51.978;5.658;2023-04-24T14:31:12;15.0;47.9
78731;SHT31;68055;51.978;5.658;2023-04-24T14:33:44;15.1;46.7
78731;SHT31;68055;51.978;5.658;2023-04-24T14:36:14;15.1;47.2
78731;SHT31;68055;51.978;5.658;2023-04-24T14:38:44;15.2;47.0
78731;SHT31;68055;51.978;5.658;2023-04-24T14:41:13;15.2;47.0
78731;SHT31;68055;51.978;5.658;2023-04-24T14:43:43;15.3;45.2
78731;SHT31;68055;51.978;5.658;2023-04-24T14:46:13;15.3;46.3
78731;SHT31;68055;51.978;5.658;2023-04-24T14:48:44;15.4;46.0
78731;SHT31;68055;51.978;5.658;2023-04-24T14:51:14;15.4;45.9
78731;SHT31;68055;51.978;5.658;2023-04-24T14:53:43;15.4;46.3
78731;SHT31;68055;51.978;5.658;2023-04-24T14:56:14;15.5;46.5
78731;SHT31;68055;51.978;5.658;2023-04-24T14:58:44;15.5;47.4
78731;SHT31;68055;51.978;5.658;2023-04-24T15:01:14;15.5;46.2
78731;SHT31;68055;51.978;5.658;2023-04-24T15:03:45;15.5;46.5
78731;SHT31;68055;51.978;5.658;2023-04-24T15:06:17;15.5;46.6
78731;SHT31;68055;51.978;5.658;2023-04-24T15:08:49;15.5;48.1
78731;SHT31;68055;51.978;5.658;2023-04-24T15:11:19;15.5;46.6
78731;SHT31;68055;51.978;5.658;2023-04-24T15:13:49;15.5;46.8
78731;SHT31;68055;51.978;5.658;2023-04-24T15:16:19;15.5;46.3
78731;SHT31;68055;51.978;5.658;2023-04-24T15:18:49;15.5;46.5
78731;SHT31;68055;51.978;5.658;2023-04-24T15:21:18;15.5;47.2
78731;SHT31;68055;51.978;5.658;2023-04-24T15:23:48;15.4;46.9
78731;SHT31;68055;51.978;5.658;2023-04-24T15:26:19;15.4;46.9
78731;SHT31;68055;51.978;5.658;2023-04-24T15:28:49;15.4;48.2
78731;SHT31;68055;51.978;5.658;2023-04-24T15:31:19;15.4;48.6
78731;SHT31;68055;51.978;5.658;2023-04-24T15:33:50;15.3;49.4
78731;SHT31;68055;51.978;5.658;2023-04-24T15:36:20;15.2;50.4
78731;SHT31;68055;51.978;5.658;2023-04-24T15:38:50;15.2;50.0
78731;SHT31;68055;51.978;5.658;2023-04-24T15:41:19;15.2;48.8
78731;SHT31;68055;51.978;5.658;2023-04-24T15:43:49;15.1;48.3
78731;SHT31;68055;51.978;5.658;2023-04-24T15:46:20;15.1;48.6
78731;SHT31;68055;51.978;5.658;2023-04-24T15:48:50;15.1;48.7
78731;SHT31;68055;51.978;5.658;2023-04-24T15:51:20;15.1;48.5
78731;SHT31;68055;51.978;5.658;2023-04-24T15:53:50;15.1;48.0
78731;SHT31;68055;51.978;5.658;2023-04-24T15:56:19;15.1;47.3
78731;SHT31;68055;51.978;5.658;2023-04-24T15:58:51;15.1;48.1
78731;SHT31;68055;51.978;5.658;2023-04-24T16:01:21;15.1;48.0
78731;SHT31;68055;51.978;5.658;2023-04-24T16:03:50;15.1;49.2
78731;SHT31;68055;51.978;5.658;2023-04-24T16:06:20;15.1;49.3
78731;SHT31;68055;51.978;5.658;2023-04-24T16:08:49;15.1;49.3
78731;SHT31;68055;51.978;5.658;2023-04-24T16:11:19;15.1;49.7
78731;SHT31;68055;51.978;5.658;2023-04-24T16:13:48;15.0;48.5
78731;SHT31;68055;51.978;5.658;2023-04-24T16:16:18;15.0;49.4
78731;SHT31;68055;51.978;5.658;2023-04-24T16:18:50;14.9;48.2
78731;SHT31;68055;51.978;5.658;2023-04-24T16:21:20;14.9;47.6
78731;SHT31;68055;51.978;5.658;2023-04-24T16:23:50;14.9;48.3
78731;SHT31;68055;51.978;5.658;2023-04-24T16:26:20;14.8;48.1